Terminal Aerodrome Forecast
Issued by NWS Buffalo, NY

Home | Current Version | Previous Version | Text Only | Print | Product List | Glossary On
Versions: 1 2 3 4 5 6 7 8 9 10 11 12 13 14 15 16 17 18 19 20 21 22 23 24 25 26 27 28 29 30 31 32 33
000
FTUS41 KBUF 100500
TAFROC
TAF
KROC 100540Z 1006/1106 31004KT P6SM SCT050
      TEMPO 1006/1008 BKN050
     FM100900 VRB03KT P6SM SCT250
     FM101400 VRB03KT P6SM FEW045 SCT250
     FM110000 05004KT P6SM FEW250=

USA.gov is the U.S. government's official web portal to all federal, state and local government web resources and services.